sensor_id;sensor_type;location;lat;lon;timestamp;P1;durP1;ratioP1;P2;durP2;ratioP2
54745;SDS011;40640;48.130;11.356;2023-01-23T00:03:13;37.25;;;13.65;;
54745;SDS011;40640;48.130;11.356;2023-01-23T00:07:16;31.95;;;13.55;;
54745;SDS011;40640;48.130;11.356;2023-01-23T00:11:20;33.10;;;13.48;;
54745;SDS011;40640;48.130;11.356;2023-01-23T00:15:26;38.22;;;14.63;;
54745;SDS011;40640;48.130;11.356;2023-01-23T00:19:29;34.50;;;14.52;;
54745;SDS011;40640;48.130;11.356;2023-01-23T00:23:32;34.90;;;14.40;;
54745;SDS011;40640;48.130;11.356;2023-01-23T00:27:35;31.92;;;14.18;;
54745;SDS011;40640;48.130;11.356;2023-01-23T00:31:39;32.25;;;14.38;;
54745;SDS011;40640;48.130;11.356;2023-01-23T00:35:42;33.60;;;14.75;;
54745;SDS011;40640;48.130;11.356;2023-01-23T00:39:45;34.33;;;14.70;;
54745;SDS011;40640;48.130;11.356;2023-01-23T00:43:51;30.90;;;13.18;;
54745;SDS011;40640;48.130;11.356;2023-01-23T00:47:55;38.58;;;16.33;;
54745;SDS011;40640;48.130;11.356;2023-01-23T00:51:58;36.40;;;15.93;;
54745;SDS011;40640;48.130;11.356;2023-01-23T00:56:01;42.80;;;17.02;;
54745;SDS011;40640;48.130;11.356;2023-01-23T01:00:04;40.40;;;15.85;;
54745;SDS011;40640;48.130;11.356;2023-01-23T01:04:10;36.28;;;15.88;;
54745;SDS011;40640;48.130;11.356;2023-01-23T01:08:13;35.78;;;15.45;;
54745;SDS011;40640;48.130;11.356;2023-01-23T01:12:16;29.25;;;14.85;;
54745;SDS011;40640;48.130;11.356;2023-01-23T01:16:19;38.25;;;15.95;;
54745;SDS011;40640;48.130;11.356;2023-01-23T01:20:26;35.43;;;16.10;;
54745;SDS011;40640;48.130;11.356;2023-01-23T01:24:30;42.17;;;16.88;;
54745;SDS011;40640;48.130;11.356;2023-01-23T01:28:33;42.90;;;17.52;;
54745;SDS011;40640;48.130;11.356;2023-01-23T01:32:38;45.88;;;19.02;;
54745;SDS011;40640;48.130;11.356;2023-01-23T01:36:44;43.28;;;18.63;;
54745;SDS011;40640;48.130;11.356;2023-01-23T01:40:47;43.25;;;18.88;;
54745;SDS011;40640;48.130;11.356;2023-01-23T01:44:51;44.50;;;19.70;;
54745;SDS011;40640;48.130;11.356;2023-01-23T01:48:59;47.28;;;20.02;;
54745;SDS011;40640;48.130;11.356;2023-01-23T01:53:07;47.10;;;18.23;;
54745;SDS011;40640;48.130;11.356;2023-01-23T01:57:12;38.13;;;16.30;;
54745;SDS011;40640;48.130;11.356;2023-01-23T02:01:18;40.47;;;17.83;;
54745;SDS011;40640;48.130;11.356;2023-01-23T02:05:22;42.45;;;17.85;;
54745;SDS011;40640;48.130;11.356;2023-01-23T02:09:30;39.58;;;17.00;;
54745;SDS011;40640;48.130;11.356;2023-01-23T02:13:34;37.83;;;17.27;;
54745;SDS011;40640;48.130;11.356;2023-01-23T02:17:40;44.78;;;18.92;;
54745;SDS011;40640;48.130;11.356;2023-01-23T02:21:44;42.87;;;19.43;;
54745;SDS011;40640;48.130;11.356;2023-01-23T02:25:54;42.63;;;18.90;;
54745;SDS011;40640;48.130;11.356;2023-01-23T02:30:02;41.05;;;18.58;;
54745;SDS011;40640;48.130;11.356;2023-01-23T02:34:08;43.95;;;19.23;;
54745;SDS011;40640;48.130;11.356;2023-01-23T02:38:13;41.67;;;19.38;;
54745;SDS011;40640;48.130;11.356;2023-01-23T02:42:17;38.83;;;17.35;;
54745;SDS011;40640;48.130;11.356;2023-01-23T02:46:25;46.72;;;19.08;;
54745;SDS011;40640;48.130;11.356;2023-01-23T02:50:28;40.53;;;17.58;;
54745;SDS011;40640;48.130;11.356;2023-01-23T02:54:31;42.25;;;19.25;;
54745;SDS011;40640;48.130;11.356;2023-01-23T02:58:36;45.00;;;19.13;;
54745;SDS011;40640;48.130;11.356;2023-01-23T03:02:56;39.00;;;18.60;;
54745;SDS011;40640;48.130;11.356;2023-01-23T03:06:59;42.65;;;19.92;;
54745;SDS011;40640;48.130;11.356;2023-01-23T03:11:02;45.53;;;19.35;;
54745;SDS011;40640;48.130;11.356;2023-01-23T03:15:07;49.70;;;20.35;;
54745;SDS011;40640;48.130;11.356;2023-01-23T03:19:11;41.72;;;20.00;;
54745;SDS011;40640;48.130;11.356;2023-01-23T03:23:14;43.13;;;19.40;;
54745;SDS011;40640;48.130;11.356;2023-01-23T03:27:18;45.17;;;19.17;;
54745;SDS011;40640;48.130;11.356;2023-01-23T03:31:29;41.90;;;18.88;;
54745;SDS011;40640;48.130;11.356;2023-01-23T03:35:31;47.63;;;19.95;;
54745;SDS011;40640;48.130;11.356;2023-01-23T03:39:34;45.85;;;19.35;;
54745;SDS011;40640;48.130;11.356;2023-01-23T03:43:55;45.40;;;19.88;;
54745;SDS011;40640;48.130;11.356;2023-01-23T03:48:00;42.50;;;19.02;;
54745;SDS011;40640;48.130;11.356;2023-01-23T03:52:04;43.40;;;19.42;;
54745;SDS011;40640;48.130;11.356;2023-01-23T03:56:07;43.10;;;20.30;;
54745;SDS011;40640;48.130;11.356;2023-01-23T04:00:11;46.95;;;21.42;;
54745;SDS011;40640;48.130;11.356;2023-01-23T04:04:18;52.08;;;21.42;;
54745;SDS011;40640;48.130;11.356;2023-01-23T04:08:21;44.78;;;20.20;;
54745;SDS011;40640;48.130;11.356;2023-01-23T04:12:27;44.35;;;20.63;;
54745;SDS011;40640;48.130;11.356;2023-01-23T04:16:30;46.60;;;20.05;;
54745;SDS011;40640;48.130;11.356;2023-01-23T04:20:34;44.72;;;20.55;;
54745;SDS011;40640;48.130;11.356;2023-01-23T04:24:37;51.05;;;20.05;;
54745;SDS011;40640;48.130;11.356;2023-01-23T04:28:40;44.03;;;18.65;;
54745;SDS011;40640;48.130;11.356;2023-01-23T04:32:44;43.60;;;19.85;;
54745;SDS011;40640;48.130;11.356;2023-01-23T04:36:52;51.38;;;20.20;;
54745;SDS011;40640;48.130;11.356;2023-01-23T04:40:56;46.00;;;19.73;;
54745;SDS011;40640;48.130;11.356;2023-01-23T04:45:03;43.38;;;19.20;;
54745;SDS011;40640;48.130;11.356;2023-01-23T04:49:25;43.40;;;20.30;;
54745;SDS011;40640;48.130;11.356;2023-01-23T04:53:29;44.15;;;19.60;;
54745;SDS011;40640;48.130;11.356;2023-01-23T04:57:35;47.08;;;20.13;;
54745;SDS011;40640;48.130;11.356;2023-01-23T05:01:47;46.08;;;19.92;;
54745;SDS011;40640;48.130;11.356;2023-01-23T05:05:51;39.58;;;18.75;;
54745;SDS011;40640;48.130;11.356;2023-01-23T05:09:56;44.03;;;20.02;;
54745;SDS011;40640;48.130;11.356;2023-01-23T05:13:59;41.85;;;19.17;;
54745;SDS011;40640;48.130;11.356;2023-01-23T05:18:04;42.85;;;19.08;;
54745;SDS011;40640;48.130;11.356;2023-01-23T05:22:09;47.03;;;19.75;;
54745;SDS011;40640;48.130;11.356;2023-01-23T05:26:13;42.53;;;20.17;;
54745;SDS011;40640;48.130;11.356;2023-01-23T05:30:17;48.40;;;21.77;;
54745;SDS011;40640;48.130;11.356;2023-01-23T05:34:25;42.88;;;19.55;;
54745;SDS011;40640;48.130;11.356;2023-01-23T05:38:29;40.95;;;19.13;;
54745;SDS011;40640;48.130;11.356;2023-01-23T05:42:34;43.47;;;19.70;;
54745;SDS011;40640;48.130;11.356;2023-01-23T05:47:15;43.25;;;19.45;;
54745;SDS011;40640;48.130;11.356;2023-01-23T05:51:18;40.70;;;19.27;;
54745;SDS011;40640;48.130;11.356;2023-01-23T05:55:23;48.00;;;19.67;;
54745;SDS011;40640;48.130;11.356;2023-01-23T05:59:29;46.97;;;19.75;;
54745;SDS011;40640;48.130;11.356;2023-01-23T06:03:56;41.72;;;19.15;;
54745;SDS011;40640;48.130;11.356;2023-01-23T06:08:09;44.45;;;19.52;;
54745;SDS011;40640;48.130;11.356;2023-01-23T06:12:12;40.92;;;18.92;;
54745;SDS011;40640;48.130;11.356;2023-01-23T06:16:16;42.33;;;17.83;;
54745;SDS011;40640;48.130;11.356;2023-01-23T06:20:20;41.65;;;19.10;;
54745;SDS011;40640;48.130;11.356;2023-01-23T06:24:23;36.92;;;18.13;;
54745;SDS011;40640;48.130;11.356;2023-01-23T06:28:27;43.17;;;19.13;;
54745;SDS011;40640;48.130;11.356;2023-01-23T06:32:31;43.90;;;20.10;;
54745;SDS011;40640;48.130;11.356;2023-01-23T06:36:34;44.83;;;19.83;;
54745;SDS011;40640;48.130;11.356;2023-01-23T06:40:38;44.42;;;20.25;;
54745;SDS011;40640;48.130;11.356;2023-01-23T06:44:55;43.75;;;19.17;;
54745;SDS011;40640;48.130;11.356;2023-01-23T06:49:02;44.28;;;18.80;;
54745;SDS011;40640;48.130;11.356;2023-01-23T06:53:11;40.67;;;19.63;;
54745;SDS011;40640;48.130;11.356;2023-01-23T06:57:17;40.22;;;18.55;;
54745;SDS011;40640;48.130;11.356;2023-01-23T07:01:21;45.97;;;20.30;;
54745;SDS011;40640;48.130;11.356;2023-01-23T07:05:45;40.38;;;19.35;;
54745;SDS011;40640;48.130;11.356;2023-01-23T07:09:48;50.08;;;21.05;;
54745;SDS011;40640;48.130;11.356;2023-01-23T07:13:57;50.40;;;20.95;;
54745;SDS011;40640;48.130;11.356;2023-01-23T07:18:02;52.38;;;20.92;;
54745;SDS011;40640;48.130;11.356;2023-01-23T07:22:06;50.63;;;21.13;;
54745;SDS011;40640;48.130;11.356;2023-01-23T07:26:09;53.55;;;22.13;;
54745;SDS011;40640;48.130;11.356;2023-01-23T07:30:12;59.35;;;22.92;;
54745;SDS011;40640;48.130;11.356;2023-01-23T07:34:15;60.72;;;21.55;;
54745;SDS011;40640;48.130;11.356;2023-01-23T07:38:20;61.90;;;23.23;;
54745;SDS011;40640;48.130;11.356;2023-01-23T07:42:23;68.20;;;24.00;;
54745;SDS011;40640;48.130;11.356;2023-01-23T07:46:26;60.97;;;23.35;;
54745;SDS011;40640;48.130;11.356;2023-01-23T07:50:29;71.35;;;25.42;;
54745;SDS011;40640;48.130;11.356;2023-01-23T07:54:33;65.18;;;24.05;;
54745;SDS011;40640;48.130;11.356;2023-01-23T07:58:36;75.35;;;25.73;;
54745;SDS011;40640;48.130;11.356;2023-01-23T08:02:39;67.43;;;25.67;;
54745;SDS011;40640;48.130;11.356;2023-01-23T08:06:42;77.18;;;26.00;;
54745;SDS011;40640;48.130;11.356;2023-01-23T08:10:46;76.75;;;26.63;;
54745;SDS011;40640;48.130;11.356;2023-01-23T08:14:49;68.20;;;25.58;;
54745;SDS011;40640;48.130;11.356;2023-01-23T08:18:52;70.70;;;24.63;;
54745;SDS011;40640;48.130;11.356;2023-01-23T08:22:55;62.72;;;23.80;;
54745;SDS011;40640;48.130;11.356;2023-01-23T08:27:00;60.03;;;22.95;;
54745;SDS011;40640;48.130;11.356;2023-01-23T08:31:04;60.60;;;22.60;;
54745;SDS011;40640;48.130;11.356;2023-01-23T08:35:08;54.42;;;21.23;;
54745;SDS011;40640;48.130;11.356;2023-01-23T08:39:11;57.45;;;20.73;;
54745;SDS011;40640;48.130;11.356;2023-01-23T08:43:16;46.63;;;20.85;;
54745;SDS011;40640;48.130;11.356;2023-01-23T08:47:20;46.47;;;19.83;;
54745;SDS011;40640;48.130;11.356;2023-01-23T08:51:23;48.40;;;20.05;;
54745;SDS011;40640;48.130;11.356;2023-01-23T08:55:27;46.67;;;19.45;;
54745;SDS011;40640;48.130;11.356;2023-01-23T08:59:32;44.20;;;18.80;;
54745;SDS011;40640;48.130;11.356;2023-01-23T09:03:34;43.45;;;17.77;;
54745;SDS011;40640;48.130;11.356;2023-01-23T09:07:37;45.60;;;18.75;;
54745;SDS011;40640;48.130;11.356;2023-01-23T09:11:41;47.33;;;19.45;;
54745;SDS011;40640;48.130;11.356;2023-01-23T09:15:45;42.80;;;18.13;;
54745;SDS011;40640;48.130;11.356;2023-01-23T09:19:48;42.30;;;18.25;;
54745;SDS011;40640;48.130;11.356;2023-01-23T09:23:51;44.08;;;18.33;;
54745;SDS011;40640;48.130;11.356;2023-01-23T09:27:54;41.45;;;18.15;;
54745;SDS011;40640;48.130;11.356;2023-01-23T09:31:58;41.45;;;18.67;;
54745;SDS011;40640;48.130;11.356;2023-01-23T09:36:02;43.92;;;18.98;;
54745;SDS011;40640;48.130;11.356;2023-01-23T09:40:09;40.75;;;17.55;;
54745;SDS011;40640;48.130;11.356;2023-01-23T09:44:19;41.70;;;18.48;;
54745;SDS011;40640;48.130;11.356;2023-01-23T09:48:28;44.90;;;17.90;;
54745;SDS011;40640;48.130;11.356;2023-01-23T09:52:36;36.78;;;16.40;;
54745;SDS011;40640;48.130;11.356;2023-01-23T09:56:44;37.92;;;17.70;;
54745;SDS011;40640;48.130;11.356;2023-01-23T10:00:50;38.47;;;17.23;;
54745;SDS011;40640;48.130;11.356;2023-01-23T10:04:55;41.55;;;18.17;;
54745;SDS011;40640;48.130;11.356;2023-01-23T10:09:14;37.22;;;17.30;;
54745;SDS011;40640;48.130;11.356;2023-01-23T10:13:32;36.95;;;16.17;;
54745;SDS011;40640;48.130;11.356;2023-01-23T10:17:53;39.63;;;18.25;;
54745;SDS011;40640;48.130;11.356;2023-01-23T10:22:06;41.08;;;17.55;;
54745;SDS011;40640;48.130;11.356;2023-01-23T10:26:27;39.05;;;17.33;;
54745;SDS011;40640;48.130;11.356;2023-01-23T10:30:33;36.30;;;17.73;;
54745;SDS011;40640;48.130;11.356;2023-01-23T10:34:41;34.08;;;16.67;;
54745;SDS011;40640;48.130;11.356;2023-01-23T10:38:54;38.05;;;17.40;;
54745;SDS011;40640;48.130;11.356;2023-01-23T10:43:01;39.55;;;17.52;;
54745;SDS011;40640;48.130;11.356;2023-01-23T10:47:10;40.78;;;17.42;;
54745;SDS011;40640;48.130;11.356;2023-01-23T10:55:49;36.00;;;16.95;;
54745;SDS011;40640;48.130;11.356;2023-01-23T10:59:54;40.05;;;17.00;;
54745;SDS011;40640;48.130;11.356;2023-01-23T11:04:10;33.75;;;16.42;;
54745;SDS011;40640;48.130;11.356;2023-01-23T11:08:23;35.92;;;18.30;;
54745;SDS011;40640;48.130;11.356;2023-01-23T11:12:29;36.70;;;16.70;;
54745;SDS011;40640;48.130;11.356;2023-01-23T11:16:33;36.10;;;16.15;;
54745;SDS011;40640;48.130;11.356;2023-01-23T11:20:37;35.92;;;16.60;;
54745;SDS011;40640;48.130;11.356;2023-01-23T11:28:47;33.88;;;14.65;;
54745;SDS011;40640;48.130;11.356;2023-01-23T11:32:53;35.58;;;17.23;;
54745;SDS011;40640;48.130;11.356;2023-01-23T11:37:01;34.58;;;16.30;;
54745;SDS011;40640;48.130;11.356;2023-01-23T11:41:09;36.47;;;16.75;;
54745;SDS011;40640;48.130;11.356;2023-01-23T11:45:17;35.38;;;15.88;;
54745;SDS011;40640;48.130;11.356;2023-01-23T11:49:33;39.63;;;16.55;;
54745;SDS011;40640;48.130;11.356;2023-01-23T11:53:53;42.22;;;18.58;;
54745;SDS011;40640;48.130;11.356;2023-01-23T11:58:06;46.30;;;18.35;;
54745;SDS011;40640;48.130;11.356;2023-01-23T12:07:04;44.13;;;19.17;;
54745;SDS011;40640;48.130;11.356;2023-01-23T12:11:16;36.10;;;16.55;;
54745;SDS011;40640;48.130;11.356;2023-01-23T12:19:35;34.15;;;16.50;;
54745;SDS011;40640;48.130;11.356;2023-01-23T12:23:56;35.22;;;16.45;;
54745;SDS011;40640;48.130;11.356;2023-01-23T12:28:13;35.10;;;17.23;;
54745;SDS011;40640;48.130;11.356;2023-01-23T12:32:32;32.22;;;16.55;;
54745;SDS011;40640;48.130;11.356;2023-01-23T12:36:49;36.85;;;16.40;;
54745;SDS011;40640;48.130;11.356;2023-01-23T12:45:29;30.70;;;16.08;;
54745;SDS011;40640;48.130;11.356;2023-01-23T12:49:34;33.25;;;15.98;;
54745;SDS011;40640;48.130;11.356;2023-01-23T12:53:43;31.50;;;15.40;;
54745;SDS011;40640;48.130;11.356;2023-01-23T12:57:51;33.05;;;16.92;;
54745;SDS011;40640;48.130;11.356;2023-01-23T13:02:11;29.67;;;15.73;;
54745;SDS011;40640;48.130;11.356;2023-01-23T13:06:26;33.10;;;16.77;;
54745;SDS011;40640;48.130;11.356;2023-01-23T13:10:41;33.58;;;16.00;;
54745;SDS011;40640;48.130;11.356;2023-01-23T13:15:29;32.30;;;16.23;;
54745;SDS011;40640;48.130;11.356;2023-01-23T13:19:41;37.42;;;17.08;;
54745;SDS011;40640;48.130;11.356;2023-01-23T13:28:59;37.00;;;16.52;;
54745;SDS011;40640;48.130;11.356;2023-01-23T13:37:58;35.78;;;15.32;;
54745;SDS011;40640;48.130;11.356;2023-01-23T13:46:41;32.03;;;15.35;;
54745;SDS011;40640;48.130;11.356;2023-01-23T13:51:10;33.35;;;14.05;;
54745;SDS011;40640;48.130;11.356;2023-01-23T13:55:33;32.97;;;15.50;;
54745;SDS011;40640;48.130;11.356;2023-01-23T14:00:14;29.90;;;15.32;;
54745;SDS011;40640;48.130;11.356;2023-01-23T14:04:36;34.53;;;16.52;;
54745;SDS011;40640;48.130;11.356;2023-01-23T14:09:18;32.00;;;15.18;;
54745;SDS011;40640;48.130;11.356;2023-01-23T14:13:36;36.50;;;15.65;;
54745;SDS011;40640;48.130;11.356;2023-01-23T14:17:53;29.58;;;14.73;;
54745;SDS011;40640;48.130;11.356;2023-01-23T14:22:13;29.08;;;15.25;;
54745;SDS011;40640;48.130;11.356;2023-01-23T14:26:17;30.67;;;14.23;;
54745;SDS011;40640;48.130;11.356;2023-01-23T14:30:23;34.00;;;16.42;;
54745;SDS011;40640;48.130;11.356;2023-01-23T14:34:28;31.38;;;15.13;;
54745;SDS011;40640;48.130;11.356;2023-01-23T14:38:32;32.15;;;16.35;;
54745;SDS011;40640;48.130;11.356;2023-01-23T14:42:35;31.35;;;14.65;;
54745;SDS011;40640;48.130;11.356;2023-01-23T14:46:40;28.48;;;14.80;;
54745;SDS011;40640;48.130;11.356;2023-01-23T14:50:43;31.92;;;15.65;;
54745;SDS011;40640;48.130;11.356;2023-01-23T14:54:48;31.48;;;15.50;;
54745;SDS011;40640;48.130;11.356;2023-01-23T14:58:56;31.05;;;15.30;;
54745;SDS011;40640;48.130;11.356;2023-01-23T15:03:01;32.03;;;16.13;;
54745;SDS011;40640;48.130;11.356;2023-01-23T15:07:05;35.28;;;16.05;;
54745;SDS011;40640;48.130;11.356;2023-01-23T15:11:25;34.63;;;15.38;;
54745;SDS011;40640;48.130;11.356;2023-01-23T15:15:29;32.35;;;15.43;;
54745;SDS011;40640;48.130;11.356;2023-01-23T15:19:34;36.72;;;16.92;;
54745;SDS011;40640;48.130;11.356;2023-01-23T15:23:39;34.22;;;16.38;;
54745;SDS011;40640;48.130;11.356;2023-01-23T15:28:01;34.50;;;16.52;;
54745;SDS011;40640;48.130;11.356;2023-01-23T15:32:12;31.55;;;16.70;;
54745;SDS011;40640;48.130;11.356;2023-01-23T15:36:22;33.67;;;15.00;;
54745;SDS011;40640;48.130;11.356;2023-01-23T15:40:27;32.35;;;13.93;;
54745;SDS011;40640;48.130;11.356;2023-01-23T15:44:32;34.13;;;15.10;;
54745;SDS011;40640;48.130;11.356;2023-01-23T15:48:35;35.08;;;16.30;;
54745;SDS011;40640;48.130;11.356;2023-01-23T15:52:44;35.25;;;15.55;;
54745;SDS011;40640;48.130;11.356;2023-01-23T15:56:48;36.75;;;16.35;;
54745;SDS011;40640;48.130;11.356;2023-01-23T16:01:08;40.03;;;17.25;;
54745;SDS011;40640;48.130;11.356;2023-01-23T16:05:11;36.40;;;16.45;;
54745;SDS011;40640;48.130;11.356;2023-01-23T16:09:17;43.28;;;17.02;;
54745;SDS011;40640;48.130;11.356;2023-01-23T16:13:24;38.28;;;14.85;;
54745;SDS011;40640;48.130;11.356;2023-01-23T16:17:28;43.83;;;18.10;;
54745;SDS011;40640;48.130;11.356;2023-01-23T16:21:31;44.00;;;15.85;;
54745;SDS011;40640;48.130;11.356;2023-01-23T16:25:35;45.22;;;17.90;;
54745;SDS011;40640;48.130;11.356;2023-01-23T16:29:45;53.25;;;18.50;;
54745;SDS011;40640;48.130;11.356;2023-01-23T16:33:51;43.63;;;17.58;;
54745;SDS011;40640;48.130;11.356;2023-01-23T16:37:54;45.45;;;19.20;;
54745;SDS011;40640;48.130;11.356;2023-01-23T16:41:57;46.65;;;18.20;;
54745;SDS011;40640;48.130;11.356;2023-01-23T16:46:00;48.42;;;19.52;;
54745;SDS011;40640;48.130;11.356;2023-01-23T16:50:05;45.92;;;17.45;;
54745;SDS011;40640;48.130;11.356;2023-01-23T16:54:10;52.70;;;19.13;;
54745;SDS011;40640;48.130;11.356;2023-01-23T16:58:20;38.85;;;14.50;;
54745;SDS011;40640;48.130;11.356;2023-01-23T17:02:26;53.60;;;20.65;;
54745;SDS011;40640;48.130;11.356;2023-01-23T17:06:32;48.38;;;19.60;;
54745;SDS011;40640;48.130;11.356;2023-01-23T17:10:35;45.75;;;15.63;;
54745;SDS011;40640;48.130;11.356;2023-01-23T17:14:47;55.47;;;20.65;;
54745;SDS011;40640;48.130;11.356;2023-01-23T17:22:57;47.67;;;19.38;;
54745;SDS011;40640;48.130;11.356;2023-01-23T17:27:00;51.60;;;21.65;;
54745;SDS011;40640;48.130;11.356;2023-01-23T17:31:03;50.17;;;19.42;;
54745;SDS011;40640;48.130;11.356;2023-01-23T17:35:07;50.70;;;20.65;;
54745;SDS011;40640;48.130;11.356;2023-01-23T17:39:19;48.85;;;19.83;;
54745;SDS011;40640;48.130;11.356;2023-01-23T17:43:22;50.22;;;20.90;;
54745;SDS011;40640;48.130;11.356;2023-01-23T17:47:25;51.42;;;19.35;;
54745;SDS011;40640;48.130;11.356;2023-01-23T17:51:30;42.70;;;16.52;;
54745;SDS011;40640;48.130;11.356;2023-01-23T17:55:35;51.38;;;19.88;;
54745;SDS011;40640;48.130;11.356;2023-01-23T17:59:38;42.58;;;18.92;;
54745;SDS011;40640;48.130;11.356;2023-01-23T18:03:41;41.33;;;17.80;;
54745;SDS011;40640;48.130;11.356;2023-01-23T18:07:44;46.47;;;17.15;;
54745;SDS011;40640;48.130;11.356;2023-01-23T18:11:55;35.83;;;16.13;;
54745;SDS011;40640;48.130;11.356;2023-01-23T18:16:02;40.35;;;17.63;;
54745;SDS011;40640;48.130;11.356;2023-01-23T18:20:14;25.75;;;13.10;;
54745;SDS011;40640;48.130;11.356;2023-01-23T18:24:21;40.88;;;17.38;;
54745;SDS011;40640;48.130;11.356;2023-01-23T18:28:27;38.65;;;15.52;;
54745;SDS011;40640;48.130;11.356;2023-01-23T18:32:54;40.55;;;15.85;;
54745;SDS011;40640;48.130;11.356;2023-01-23T18:37:12;36.25;;;15.40;;
54745;SDS011;40640;48.130;11.356;2023-01-23T18:41:20;40.92;;;16.15;;
54745;SDS011;40640;48.130;11.356;2023-01-23T18:45:26;46.60;;;18.63;;
54745;SDS011;40640;48.130;11.356;2023-01-23T18:49:30;34.63;;;13.77;;
54745;SDS011;40640;48.130;11.356;2023-01-23T18:53:36;40.60;;;15.65;;
54745;SDS011;40640;48.130;11.356;2023-01-23T18:57:52;44.47;;;18.45;;
54745;SDS011;40640;48.130;11.356;2023-01-23T19:02:15;41.08;;;17.60;;
54745;SDS011;40640;48.130;11.356;2023-01-23T19:06:27;45.90;;;18.67;;
54745;SDS011;40640;48.130;11.356;2023-01-23T19:10:35;49.05;;;19.98;;
54745;SDS011;40640;48.130;11.356;2023-01-23T19:14:52;47.65;;;19.25;;
54745;SDS011;40640;48.130;11.356;2023-01-23T19:19:06;45.60;;;17.05;;
54745;SDS011;40640;48.130;11.356;2023-01-23T19:23:22;49.53;;;19.77;;
54745;SDS011;40640;48.130;11.356;2023-01-23T19:27:33;49.55;;;21.00;;
54745;SDS011;40640;48.130;11.356;2023-01-23T19:31:37;46.58;;;19.33;;
54745;SDS011;40640;48.130;11.356;2023-01-23T19:35:42;54.53;;;20.73;;
54745;SDS011;40640;48.130;11.356;2023-01-23T19:39:45;52.92;;;20.58;;
54745;SDS011;40640;48.130;11.356;2023-01-23T19:43:49;47.90;;;19.70;;
54745;SDS011;40640;48.130;11.356;2023-01-23T19:47:53;50.22;;;19.58;;
54745;SDS011;40640;48.130;11.356;2023-01-23T19:51:57;58.47;;;21.52;;
54745;SDS011;40640;48.130;11.356;2023-01-23T19:56:00;52.15;;;16.65;;
54745;SDS011;40640;48.130;11.356;2023-01-23T20:00:03;51.90;;;22.40;;
54745;SDS011;40640;48.130;11.356;2023-01-23T20:04:12;42.35;;;17.42;;
54745;SDS011;40640;48.130;11.356;2023-01-23T20:08:18;47.70;;;17.80;;
54745;SDS011;40640;48.130;11.356;2023-01-23T20:12:21;54.78;;;21.45;;
54745;SDS011;40640;48.130;11.356;2023-01-23T20:16:24;59.15;;;21.92;;
54745;SDS011;40640;48.130;11.356;2023-01-23T20:20:27;58.50;;;23.40;;
54745;SDS011;40640;48.130;11.356;2023-01-23T20:24:31;54.67;;;22.10;;
54745;SDS011;40640;48.130;11.356;2023-01-23T20:28:34;54.17;;;22.00;;
54745;SDS011;40640;48.130;11.356;2023-01-23T20:32:37;61.67;;;24.35;;
54745;SDS011;40640;48.130;11.356;2023-01-23T20:36:40;68.75;;;26.40;;
54745;SDS011;40640;48.130;11.356;2023-01-23T20:40:44;74.78;;;28.25;;
54745;SDS011;40640;48.130;11.356;2023-01-23T20:44:48;68.43;;;25.98;;
54745;SDS011;40640;48.130;11.356;2023-01-23T20:48:51;66.43;;;25.25;;
54745;SDS011;40640;48.130;11.356;2023-01-23T20:52:53;66.32;;;25.63;;
54745;SDS011;40640;48.130;11.356;2023-01-23T20:57:15;69.72;;;25.95;;
54745;SDS011;40640;48.130;11.356;2023-01-23T21:01:18;68.50;;;27.35;;
54745;SDS011;40640;48.130;11.356;2023-01-23T21:05:23;59.40;;;25.38;;
54745;SDS011;40640;48.130;11.356;2023-01-23T21:09:26;64.65;;;25.52;;
54745;SDS011;40640;48.130;11.356;2023-01-23T21:13:30;61.15;;;25.35;;
54745;SDS011;40640;48.130;11.356;2023-01-23T21:17:33;69.32;;;26.58;;
54745;SDS011;40640;48.130;11.356;2023-01-23T21:21:36;67.63;;;25.40;;
54745;SDS011;40640;48.130;11.356;2023-01-23T21:25:39;72.45;;;27.45;;
54745;SDS011;40640;48.130;11.356;2023-01-23T21:29:43;63.28;;;24.67;;
54745;SDS011;40640;48.130;11.356;2023-01-23T21:33:46;60.95;;;23.17;;
54745;SDS011;40640;48.130;11.356;2023-01-23T21:37:49;62.83;;;25.45;;
54745;SDS011;40640;48.130;11.356;2023-01-23T21:41:51;60.85;;;23.63;;
54745;SDS011;40640;48.130;11.356;2023-01-23T21:45:56;55.67;;;24.10;;
54745;SDS011;40640;48.130;11.356;2023-01-23T21:49:58;58.47;;;25.15;;
54745;SDS011;40640;48.130;11.356;2023-01-23T21:54:01;60.05;;;24.63;;
54745;SDS011;40640;48.130;11.356;2023-01-23T21:58:04;59.80;;;25.58;;
54745;SDS011;40640;48.130;11.356;2023-01-23T22:02:08;53.97;;;24.38;;
54745;SDS011;40640;48.130;11.356;2023-01-23T22:06:11;53.47;;;23.27;;
54745;SDS011;40640;48.130;11.356;2023-01-23T22:10:14;55.72;;;23.00;;
54745;SDS011;40640;48.130;11.356;2023-01-23T22:14:17;64.32;;;24.52;;
54745;SDS011;40640;48.130;11.356;2023-01-23T22:18:22;58.35;;;23.08;;
54745;SDS011;40640;48.130;11.356;2023-01-23T22:22:25;50.38;;;20.88;;
54745;SDS011;40640;48.130;11.356;2023-01-23T22:26:27;56.40;;;21.58;;
54745;SDS011;40640;48.130;11.356;2023-01-23T22:30:30;67.68;;;26.30;;
54745;SDS011;40640;48.130;11.356;2023-01-23T22:34:34;57.28;;;23.15;;
54745;SDS011;40640;48.130;11.356;2023-01-23T22:38:37;57.65;;;23.02;;
54745;SDS011;40640;48.130;11.356;2023-01-23T22:42:40;57.17;;;22.85;;
54745;SDS011;40640;48.130;11.356;2023-01-23T22:46:43;68.50;;;25.02;;
54745;SDS011;40640;48.130;11.356;2023-01-23T22:50:47;61.40;;;24.42;;
54745;SDS011;40640;48.130;11.356;2023-01-23T22:54:50;58.33;;;23.98;;
54745;SDS011;40640;48.130;11.356;2023-01-23T22:58:53;63.63;;;24.60;;
54745;SDS011;40640;48.130;11.356;2023-01-23T23:02:57;61.15;;;23.02;;
54745;SDS011;40640;48.130;11.356;2023-01-23T23:07:01;54.40;;;23.35;;
54745;SDS011;40640;48.130;11.356;2023-01-23T23:11:05;57.58;;;21.35;;
54745;SDS011;40640;48.130;11.356;2023-01-23T23:15:09;58.70;;;22.85;;
54745;SDS011;40640;48.130;11.356;2023-01-23T23:19:12;55.53;;;20.92;;
54745;SDS011;40640;48.130;11.356;2023-01-23T23:23:17;54.72;;;21.38;;
54745;SDS011;40640;48.130;11.356;2023-01-23T23:31:24;33.97;;;14.13;;
54745;SDS011;40640;48.130;11.356;2023-01-23T23:35:27;51.17;;;20.63;;
54745;SDS011;40640;48.130;11.356;2023-01-23T23:39:31;51.97;;;21.33;;
54745;SDS011;40640;48.130;11.356;2023-01-23T23:43:34;47.47;;;19.42;;
54745;SDS011;40640;48.130;11.356;2023-01-23T23:47:37;47.65;;;19.55;;
54745;SDS011;40640;48.130;11.356;2023-01-23T23:51:39;50.33;;;19.52;;
54745;SDS011;40640;48.130;11.356;2023-01-23T23:55:44;49.63;;;20.02;;
54745;SDS011;40640;48.130;11.356;2023-01-23T23:59:47;56.13;;;20.42;;
